sensor_id;sensor_type;location;lat;lon;timestamp;P1;durP1;ratioP1;P2;durP2;ratioP2
3271;SDS011;1648;50.022;8.424;2024-03-08T00:03:27;32.90;;;14.80;;
3271;SDS011;1648;50.022;8.424;2024-03-08T00:18:30;34.53;;;14.53;;
3271;SDS011;1648;50.022;8.424;2024-03-08T00:33:36;28.83;;;12.83;;
3271;SDS011;1648;50.022;8.424;2024-03-08T00:48:40;28.37;;;12.20;;
3271;SDS011;1648;50.022;8.424;2024-03-08T01:03:44;28.80;;;12.93;;
3271;SDS011;1648;50.022;8.424;2024-03-08T01:18:47;32.90;;;14.50;;
3271;SDS011;1648;50.022;8.424;2024-03-08T01:33:51;35.07;;;12.53;;
3271;SDS011;1648;50.022;8.424;2024-03-08T01:48:54;30.00;;;12.20;;
3271;SDS011;1648;50.022;8.424;2024-03-08T02:03:58;32.43;;;13.00;;
3271;SDS011;1648;50.022;8.424;2024-03-08T02:19:02;30.00;;;12.13;;
3271;SDS011;1648;50.022;8.424;2024-03-08T02:34:05;42.70;;;16.60;;
3271;SDS011;1648;50.022;8.424;2024-03-08T02:49:08;39.43;;;16.20;;
3271;SDS011;1648;50.022;8.424;2024-03-08T03:04:11;34.50;;;14.70;;
3271;SDS011;1648;50.022;8.424;2024-03-08T03:19:14;36.97;;;16.17;;
3271;SDS011;1648;50.022;8.424;2024-03-08T03:34:18;32.63;;;14.93;;
3271;SDS011;1648;50.022;8.424;2024-03-08T03:49:21;36.63;;;15.77;;
3271;SDS011;1648;50.022;8.424;2024-03-08T04:04:25;33.50;;;15.83;;
3271;SDS011;1648;50.022;8.424;2024-03-08T04:19:28;37.00;;;14.00;;
3271;SDS011;1648;50.022;8.424;2024-03-08T04:34:31;31.63;;;16.53;;
3271;SDS011;1648;50.022;8.424;2024-03-08T04:49:35;36.23;;;13.17;;
3271;SDS011;1648;50.022;8.424;2024-03-08T05:04:38;40.23;;;16.47;;
3271;SDS011;1648;50.022;8.424;2024-03-08T05:19:41;41.27;;;15.80;;
3271;SDS011;1648;50.022;8.424;2024-03-08T05:34:45;42.57;;;17.40;;
3271;SDS011;1648;50.022;8.424;2024-03-08T05:49:48;35.43;;;15.70;;
3271;SDS011;1648;50.022;8.424;2024-03-08T06:04:52;46.43;;;18.67;;
3271;SDS011;1648;50.022;8.424;2024-03-08T06:19:55;39.77;;;18.43;;
3271;SDS011;1648;50.022;8.424;2024-03-08T06:34:58;55.53;;;18.67;;
3271;SDS011;1648;50.022;8.424;2024-03-08T06:50:01;42.47;;;16.80;;
3271;SDS011;1648;50.022;8.424;2024-03-08T07:05:05;43.97;;;18.13;;
3271;SDS011;1648;50.022;8.424;2024-03-08T07:20:10;42.97;;;17.30;;
3271;SDS011;1648;50.022;8.424;2024-03-08T07:35:14;42.40;;;16.70;;
3271;SDS011;1648;50.022;8.424;2024-03-08T07:50:17;31.40;;;14.77;;
3271;SDS011;1648;50.022;8.424;2024-03-08T08:05:20;33.77;;;14.70;;
3271;SDS011;1648;50.022;8.424;2024-03-08T08:20:24;29.60;;;14.23;;
3271;SDS011;1648;50.022;8.424;2024-03-08T08:35:27;39.20;;;15.13;;
3271;SDS011;1648;50.022;8.424;2024-03-08T08:50:31;35.90;;;18.00;;
3271;SDS011;1648;50.022;8.424;2024-03-08T09:05:34;35.13;;;15.80;;
3271;SDS011;1648;50.022;8.424;2024-03-08T09:20:41;25.00;;;11.00;;
3271;SDS011;1648;50.022;8.424;2024-03-08T09:35:44;25.93;;;12.37;;
3271;SDS011;1648;50.022;8.424;2024-03-08T09:50:48;24.03;;;11.63;;
3271;SDS011;1648;50.022;8.424;2024-03-08T10:05:51;19.97;;;9.40;;
3271;SDS011;1648;50.022;8.424;2024-03-08T10:21:04;37.70;;;14.73;;
3271;SDS011;1648;50.022;8.424;2024-03-08T10:36:08;14.07;;;7.47;;
3271;SDS011;1648;50.022;8.424;2024-03-08T10:51:12;14.70;;;7.33;;
3271;SDS011;1648;50.022;8.424;2024-03-08T11:06:18;25.17;;;9.00;;
3271;SDS011;1648;50.022;8.424;2024-03-08T11:21:25;22.63;;;8.70;;
3271;SDS011;1648;50.022;8.424;2024-03-08T11:36:28;23.23;;;10.77;;
3271;SDS011;1648;50.022;8.424;2024-03-08T11:51:31;17.20;;;9.10;;
3271;SDS011;1648;50.022;8.424;2024-03-08T12:06:38;23.27;;;10.83;;
3271;SDS011;1648;50.022;8.424;2024-03-08T12:21:43;23.40;;;12.87;;
3271;SDS011;1648;50.022;8.424;2024-03-08T12:36:49;22.70;;;12.53;;
3271;SDS011;1648;50.022;8.424;2024-03-08T12:51:53;25.60;;;11.80;;
3271;SDS011;1648;50.022;8.424;2024-03-08T13:06:57;19.00;;;9.03;;
3271;SDS011;1648;50.022;8.424;2024-03-08T13:22:01;20.57;;;9.60;;
3271;SDS011;1648;50.022;8.424;2024-03-08T13:37:04;20.87;;;10.80;;
3271;SDS011;1648;50.022;8.424;2024-03-08T13:52:07;23.50;;;10.80;;
3271;SDS011;1648;50.022;8.424;2024-03-08T14:07:10;20.87;;;9.73;;
3271;SDS011;1648;50.022;8.424;2024-03-08T14:22:14;27.50;;;11.40;;
3271;SDS011;1648;50.022;8.424;2024-03-08T14:37:17;22.70;;;12.37;;
3271;SDS011;1648;50.022;8.424;2024-03-08T14:52:20;31.60;;;13.77;;
3271;SDS011;1648;50.022;8.424;2024-03-08T15:07:25;27.63;;;11.27;;
3271;SDS011;1648;50.022;8.424;2024-03-08T15:22:28;18.30;;;10.03;;
3271;SDS011;1648;50.022;8.424;2024-03-08T15:37:33;28.30;;;12.40;;
3271;SDS011;1648;50.022;8.424;2024-03-08T15:52:37;28.30;;;11.87;;
3271;SDS011;1648;50.022;8.424;2024-03-08T16:07:41;15.30;;;7.20;;
3271;SDS011;1648;50.022;8.424;2024-03-08T16:23:02;26.30;;;11.47;;
3271;SDS011;1648;50.022;8.424;2024-03-08T16:38:06;21.10;;;8.87;;
3271;SDS011;1648;50.022;8.424;2024-03-08T16:53:10;21.50;;;10.47;;
3271;SDS011;1648;50.022;8.424;2024-03-08T17:08:13;22.50;;;10.07;;
3271;SDS011;1648;50.022;8.424;2024-03-08T17:23:17;21.57;;;9.53;;
3271;SDS011;1648;50.022;8.424;2024-03-08T17:38:22;21.47;;;9.90;;
3271;SDS011;1648;50.022;8.424;2024-03-08T17:53:25;25.13;;;10.47;;
3271;SDS011;1648;50.022;8.424;2024-03-08T18:08:28;17.27;;;9.13;;
3271;SDS011;1648;50.022;8.424;2024-03-08T18:23:33;24.13;;;9.40;;
3271;SDS011;1648;50.022;8.424;2024-03-08T18:38:36;20.23;;;8.50;;
3271;SDS011;1648;50.022;8.424;2024-03-08T18:53:42;22.57;;;10.20;;
3271;SDS011;1648;50.022;8.424;2024-03-08T19:08:47;22.50;;;10.33;;
3271;SDS011;1648;50.022;8.424;2024-03-08T19:23:51;29.93;;;10.80;;
3271;SDS011;1648;50.022;8.424;2024-03-08T19:38:54;26.43;;;11.70;;
3271;SDS011;1648;50.022;8.424;2024-03-08T19:54:01;19.70;;;9.40;;
3271;SDS011;1648;50.022;8.424;2024-03-08T20:09:05;25.30;;;11.40;;
3271;SDS011;1648;50.022;8.424;2024-03-08T20:24:10;25.30;;;12.37;;
3271;SDS011;1648;50.022;8.424;2024-03-08T20:39:14;31.53;;;12.60;;
3271;SDS011;1648;50.022;8.424;2024-03-08T20:54:17;31.90;;;13.40;;
3271;SDS011;1648;50.022;8.424;2024-03-08T21:09:21;22.30;;;11.53;;
3271;SDS011;1648;50.022;8.424;2024-03-08T21:24:24;26.60;;;11.53;;
3271;SDS011;1648;50.022;8.424;2024-03-08T21:39:28;26.50;;;13.40;;
3271;SDS011;1648;50.022;8.424;2024-03-08T21:54:33;31.70;;;12.63;;
3271;SDS011;1648;50.022;8.424;2024-03-08T22:09:36;23.40;;;11.70;;
3271;SDS011;1648;50.022;8.424;2024-03-08T22:24:40;25.47;;;10.93;;
3271;SDS011;1648;50.022;8.424;2024-03-08T22:39:43;24.27;;;10.83;;
3271;SDS011;1648;50.022;8.424;2024-03-08T22:54:47;33.33;;;11.27;;
3271;SDS011;1648;50.022;8.424;2024-03-08T23:09:50;37.03;;;13.57;;
3271;SDS011;1648;50.022;8.424;2024-03-08T23:24:54;30.00;;;12.50;;
3271;SDS011;1648;50.022;8.424;2024-03-08T23:39:58;21.10;;;10.50;;
3271;SDS011;1648;50.022;8.424;2024-03-08T23:55:02;26.40;;;10.90;;
